createdAt,value
2022-07-28T00:00:02.493Z,397
2022-07-28T00:00:12.450Z,396
2022-07-28T00:00:22.460Z,395
2022-07-28T00:00:32.475Z,396
2022-07-28T00:00:42.490Z,398
2022-07-28T00:00:52.503Z,398
2022-07-28T00:01:02.516Z,398
2022-07-28T00:01:12.525Z,397
2022-07-28T00:01:22.536Z,397
2022-07-28T00:01:32.615Z,396
2022-07-28T00:01:42.591Z,395
2022-07-28T00:01:52.653Z,394
2022-07-28T00:02:02.729Z,395
2022-07-28T00:02:12.663Z,395
2022-07-28T00:02:22.680Z,392
2022-07-28T00:02:32.703Z,390
2022-07-28T00:02:42.683Z,392
2022-07-28T00:02:52.680Z,393
2022-07-28T00:03:02.693Z,395
2022-07-28T00:03:12.726Z,394
2022-07-28T00:03:22.811Z,395
2022-07-28T00:03:32.707Z,395
2022-07-28T00:03:42.704Z,395
2022-07-28T00:03:52.714Z,396
2022-07-28T00:04:02.724Z,396
2022-07-28T00:04:13.050Z,396
2022-07-28T00:04:22.752Z,397
2022-07-28T00:04:32.756Z,397
2022-07-28T00:04:42.763Z,396
2022-07-28T00:04:52.870Z,395
2022-07-28T00:05:02.788Z,396
2022-07-28T00:05:12.810Z,398
2022-07-28T00:05:22.815Z,398
2022-07-28T00:05:32.836Z,398
2022-07-28T00:05:42.839Z,397
2022-07-28T00:05:52.850Z,397
2022-07-28T00:06:02.858Z,397
2022-07-28T00:06:12.874Z,396
2022-07-28T00:06:22.976Z,399
2022-07-28T00:06:32.903Z,399
2022-07-28T00:06:42.922Z,399
2022-07-28T00:06:52.926Z,400
2022-07-28T00:07:02.945Z,401
2022-07-28T00:07:12.949Z,402
2022-07-28T00:07:22.966Z,400
2022-07-28T00:07:32.975Z,400
2022-07-28T00:07:43.000Z,399
2022-07-28T00:07:53.002Z,400
2022-07-28T00:08:03.027Z,401
2022-07-28T00:08:13.033Z,402
2022-07-28T00:08:23.047Z,401
2022-07-28T00:08:33.129Z,401
2022-07-28T00:08:43.064Z,401
2022-07-28T00:08:53.089Z,399
2022-07-28T00:09:03.132Z,399
2022-07-28T00:09:13.103Z,400
2022-07-28T00:09:23.115Z,402
2022-07-28T00:09:33.125Z,402
2022-07-28T00:09:43.145Z,403
2022-07-28T00:09:58.255Z,403
2022-07-28T00:10:03.193Z,402
2022-07-28T00:10:13.173Z,402
2022-07-28T00:10:23.212Z,403
2022-07-28T00:10:33.198Z,403
2022-07-28T00:10:43.208Z,403
2022-07-28T00:10:53.218Z,403
2022-07-28T00:11:03.244Z,404
2022-07-28T00:11:13.287Z,405
2022-07-28T00:11:23.255Z,405
2022-07-28T00:11:33.278Z,403
2022-07-28T00:11:52.003Z,403
2022-07-28T00:11:54.483Z,403
2022-07-28T00:12:03.307Z,403
2022-07-28T00:12:13.327Z,405
2022-07-28T00:12:23.328Z,403
2022-07-28T00:12:33.344Z,403
2022-07-28T00:12:43.354Z,404
2022-07-28T00:13:03.467Z,403
2022-07-28T00:13:13.388Z,402
2022-07-28T00:13:23.411Z,401
2022-07-28T00:13:33.420Z,401
2022-07-28T00:13:43.426Z,399
2022-07-28T00:13:53.438Z,400
2022-07-28T00:14:03.459Z,400
2022-07-28T00:14:13.927Z,400
2022-07-28T00:14:23.471Z,401
2022-07-28T00:14:33.580Z,401
2022-07-28T00:14:43.501Z,402
2022-07-28T00:14:53.550Z,400
2022-07-28T00:15:03.530Z,400
2022-07-28T00:15:13.620Z,400
2022-07-28T00:15:23.567Z,400
2022-07-28T00:15:33.585Z,402
2022-07-28T00:15:43.580Z,401
2022-07-28T00:15:53.633Z,402
2022-07-28T00:16:03.698Z,404
2022-07-28T00:16:13.700Z,401
2022-07-28T00:16:23.683Z,401
2022-07-28T00:16:33.689Z,402
2022-07-28T00:16:43.681Z,402
2022-07-28T00:16:53.664Z,402
2022-07-28T00:17:03.700Z,406
2022-07-28T00:17:13.694Z,406
2022-07-28T00:17:23.700Z,407
2022-07-28T00:17:33.718Z,406
2022-07-28T00:17:43.737Z,406
2022-07-28T00:17:53.784Z,406
2022-07-28T00:18:03.775Z,406
2022-07-28T00:18:13.772Z,407
2022-07-28T00:18:23.780Z,408
2022-07-28T00:18:33.797Z,409
2022-07-28T00:18:43.804Z,408
2022-07-28T00:18:53.829Z,408
2022-07-28T00:19:03.844Z,410
2022-07-28T00:19:13.845Z,408
2022-07-28T00:19:23.861Z,407
2022-07-28T00:19:33.865Z,407
2022-07-28T00:19:43.883Z,407
2022-07-28T00:19:53.888Z,406
2022-07-28T00:20:03.899Z,406
2022-07-28T00:20:13.916Z,406
2022-07-28T00:20:23.933Z,404
2022-07-28T00:20:33.938Z,405
2022-07-28T00:20:43.956Z,405
2022-07-28T00:20:53.968Z,403
2022-07-28T00:21:03.985Z,403
2022-07-28T00:21:24.009Z,404
2022-07-28T00:21:34.020Z,404
2022-07-28T00:21:44.044Z,403
2022-07-28T00:21:54.203Z,403
2022-07-28T00:22:04.071Z,403
2022-07-28T00:22:14.066Z,403
2022-07-28T00:22:24.080Z,402
2022-07-28T00:22:34.103Z,402
2022-07-28T00:22:44.098Z,401
2022-07-28T00:22:54.111Z,402
2022-07-28T00:23:04.147Z,403
2022-07-28T00:23:14.137Z,404
2022-07-28T00:23:24.149Z,404
2022-07-28T00:23:39.114Z,403
2022-07-28T00:23:44.169Z,403
2022-07-28T00:23:54.218Z,402
2022-07-28T00:24:04.245Z,401
2022-07-28T00:24:14.816Z,400
2022-07-28T00:24:24.217Z,400
2022-07-28T00:24:34.230Z,400
2022-07-28T00:24:44.299Z,401
2022-07-28T00:24:54.330Z,402
2022-07-28T00:25:04.358Z,401
2022-07-28T00:25:14.288Z,401
2022-07-28T00:25:24.291Z,401
2022-07-28T00:25:34.368Z,403
2022-07-28T00:25:44.317Z,404
2022-07-28T00:25:54.334Z,404
2022-07-28T00:26:04.344Z,407
2022-07-28T00:26:14.385Z,405
2022-07-28T00:26:24.372Z,407
2022-07-28T00:26:34.383Z,407
2022-07-28T00:26:46.623Z,405
2022-07-28T00:26:54.401Z,406
2022-07-28T00:27:04.409Z,405
2022-07-28T00:27:14.521Z,406
2022-07-28T00:27:24.430Z,406
2022-07-28T00:27:34.449Z,404
2022-07-28T00:27:44.458Z,404
2022-07-28T00:27:54.558Z,404
2022-07-28T00:28:04.501Z,403
2022-07-28T00:28:14.490Z,402
2022-07-28T00:28:24.509Z,402
2022-07-28T00:28:34.548Z,402
2022-07-28T00:28:44.531Z,401
2022-07-28T00:28:54.541Z,399
2022-07-28T00:29:04.552Z,398
2022-07-28T00:29:14.566Z,395
2022-07-28T00:29:24.578Z,395
2022-07-28T00:29:49.987Z,395
2022-07-28T00:29:50.206Z,395
2022-07-28T00:29:54.609Z,395
2022-07-28T00:30:04.622Z,395
2022-07-28T00:30:14.735Z,396
2022-07-28T00:30:24.659Z,396
2022-07-28T00:30:34.666Z,397
2022-07-28T00:30:44.671Z,397
2022-07-28T00:30:54.684Z,396
2022-07-28T00:31:05.634Z,397
2022-07-28T00:31:14.748Z,397
2022-07-28T00:31:24.791Z,398
2022-07-28T00:31:34.799Z,398
2022-07-28T00:31:44.860Z,400
2022-07-28T00:31:54.795Z,398
2022-07-28T00:32:04.821Z,398
2022-07-28T00:32:14.776Z,399
2022-07-28T00:32:24.790Z,401
2022-07-28T00:32:34.801Z,402
2022-07-28T00:32:44.812Z,403
2022-07-28T00:32:54.991Z,402
2022-07-28T00:33:04.834Z,402
2022-07-28T00:33:14.857Z,402
2022-07-28T00:33:24.863Z,402
2022-07-28T00:33:34.876Z,400
2022-07-28T00:33:44.886Z,399
2022-07-28T00:33:54.898Z,401
2022-07-28T00:34:04.922Z,402
2022-07-28T00:34:15.249Z,402
2022-07-28T00:34:26.550Z,401
2022-07-28T00:34:44.959Z,401
2022-07-28T00:34:54.971Z,401
2022-07-28T00:35:04.984Z,400
2022-07-28T00:35:15.646Z,399
2022-07-28T00:35:30.995Z,399
2022-07-28T00:35:35.008Z,398
2022-07-28T00:35:46.382Z,396
2022-07-28T00:35:55.032Z,397
2022-07-28T00:36:05.041Z,396
2022-07-28T00:36:15.052Z,399
2022-07-28T00:36:25.661Z,399
2022-07-28T00:36:35.080Z,398
2022-07-28T00:36:45.093Z,396
2022-07-28T00:36:55.129Z,396
2022-07-28T00:37:05.172Z,396
2022-07-28T00:37:15.276Z,398
2022-07-28T00:37:25.140Z,398
2022-07-28T00:37:35.161Z,399
2022-07-28T00:37:45.165Z,399
2022-07-28T00:37:55.178Z,399
2022-07-28T00:38:05.182Z,400
2022-07-28T00:38:15.194Z,400
2022-07-28T00:38:35.257Z,399
2022-07-28T00:38:48.745Z,398
2022-07-28T00:38:55.235Z,398
2022-07-28T00:39:05.248Z,397
2022-07-28T00:39:15.270Z,396
2022-07-28T00:39:25.282Z,396
2022-07-28T00:39:35.287Z,396
2022-07-28T00:39:45.345Z,396
2022-07-28T00:39:55.355Z,395
2022-07-28T00:40:05.388Z,396
2022-07-28T00:40:15.341Z,397
2022-07-28T00:40:25.351Z,399
2022-07-28T00:40:35.365Z,396
2022-07-28T00:40:45.369Z,398
2022-07-28T00:40:55.454Z,397
2022-07-28T00:41:05.397Z,398
2022-07-28T00:41:15.417Z,399
2022-07-28T00:41:25.424Z,400
2022-07-28T00:41:35.437Z,400
2022-07-28T00:41:45.449Z,401
2022-07-28T00:41:55.462Z,402
2022-07-28T00:42:05.494Z,401
2022-07-28T00:42:15.487Z,402
2022-07-28T00:42:25.521Z,403
2022-07-28T00:42:35.511Z,404
2022-07-28T00:42:45.522Z,405
2022-07-28T00:42:55.567Z,406
2022-07-28T00:43:05.572Z,403
2022-07-28T00:43:15.561Z,402
2022-07-28T00:43:25.578Z,404
2022-07-28T00:43:35.596Z,404
2022-07-28T00:43:45.619Z,401
2022-07-28T00:43:55.615Z,401
2022-07-28T00:44:05.624Z,400
2022-07-28T00:44:15.982Z,399
2022-07-28T00:44:25.654Z,398
2022-07-28T00:44:35.665Z,399
2022-07-28T00:44:45.673Z,398
2022-07-28T00:44:55.690Z,398
2022-07-28T00:45:05.705Z,399
2022-07-28T00:45:15.722Z,398
2022-07-28T00:45:25.737Z,399
2022-07-28T00:45:35.740Z,399
2022-07-28T00:45:45.767Z,400
2022-07-28T00:45:55.772Z,398
2022-07-28T00:46:05.861Z,399
2022-07-28T00:46:15.851Z,397
2022-07-28T00:46:25.899Z,397
2022-07-28T00:46:35.872Z,398
2022-07-28T00:46:45.894Z,399
2022-07-28T00:46:55.879Z,398
2022-07-28T00:47:05.919Z,398
2022-07-28T00:47:15.887Z,398
2022-07-28T00:47:25.875Z,400
2022-07-28T00:47:35.885Z,401
2022-07-28T00:47:45.900Z,403
2022-07-28T00:47:56.013Z,402
2022-07-28T00:48:05.924Z,402
2022-07-28T00:48:15.954Z,401
2022-07-28T00:48:25.953Z,401
2022-07-28T00:48:36.041Z,401
2022-07-28T00:48:46.049Z,401
2022-07-28T00:48:56.082Z,400
2022-07-28T00:49:06.055Z,401
2022-07-28T00:49:16.135Z,402
2022-07-28T00:49:26.128Z,402
2022-07-28T00:49:36.040Z,402
2022-07-28T00:49:46.073Z,402
2022-07-28T00:49:56.079Z,402
2022-07-28T00:50:06.074Z,401
2022-07-28T00:50:16.088Z,403
2022-07-28T00:50:26.097Z,404
2022-07-28T00:50:36.159Z,404
2022-07-28T00:50:46.124Z,404
2022-07-28T00:50:56.240Z,404
2022-07-28T00:51:06.170Z,403
2022-07-28T00:51:16.161Z,402
2022-07-28T00:51:26.179Z,400
2022-07-28T00:51:36.276Z,399
2022-07-28T00:51:46.205Z,400
2022-07-28T00:51:56.211Z,399
2022-07-28T00:52:06.237Z,400
2022-07-28T00:52:16.314Z,399
2022-07-28T00:52:26.253Z,401
2022-07-28T00:52:36.261Z,400
2022-07-28T00:52:46.284Z,400
2022-07-28T00:52:56.292Z,398
2022-07-28T00:53:06.301Z,398
2022-07-28T00:53:16.313Z,398
2022-07-28T00:53:26.346Z,398
2022-07-28T00:53:36.343Z,398
2022-07-28T00:53:46.435Z,398
2022-07-28T00:53:56.366Z,397
2022-07-28T00:54:06.373Z,396
2022-07-28T00:54:16.610Z,395
2022-07-28T00:54:26.405Z,396
2022-07-28T00:54:36.450Z,397
2022-07-28T00:54:46.546Z,397
2022-07-28T00:54:56.434Z,397
2022-07-28T00:55:06.506Z,397
2022-07-28T00:55:16.547Z,397
2022-07-28T00:55:26.473Z,397
2022-07-28T00:56:03.011Z,398
2022-07-28T00:56:03.536Z,398
2022-07-28T00:56:06.385Z,399
2022-07-28T00:56:06.941Z,398
2022-07-28T00:56:16.549Z,397
2022-07-28T00:56:26.552Z,397
2022-07-28T00:56:36.560Z,398
2022-07-28T00:56:56.593Z,393
2022-07-28T00:57:06.624Z,394
2022-07-28T00:57:16.664Z,394
2022-07-28T00:57:26.628Z,397
2022-07-28T00:57:36.643Z,397
2022-07-28T00:57:46.846Z,396
2022-07-28T00:57:56.674Z,398
2022-07-28T00:58:06.677Z,398
2022-07-28T00:58:16.763Z,399
2022-07-28T00:58:26.699Z,399
2022-07-28T00:58:36.717Z,398
2022-07-28T00:58:46.808Z,398
2022-07-28T00:58:56.728Z,397
2022-07-28T00:59:16.768Z,399
2022-07-28T00:59:26.773Z,399
2022-07-28T00:59:36.781Z,400
2022-07-28T00:59:46.970Z,400
2022-07-28T00:59:56.812Z,400
2022-07-28T01:00:06.816Z,399
2022-07-28T01:00:16.833Z,399
2022-07-28T01:00:26.843Z,399
2022-07-28T01:00:36.870Z,398
2022-07-28T01:00:46.950Z,398
2022-07-28T01:00:56.921Z,400
2022-07-28T01:01:06.959Z,400
2022-07-28T01:01:16.994Z,399
2022-07-28T01:01:27.036Z,396
2022-07-28T01:01:37.242Z,396
2022-07-28T01:01:47.176Z,396
2022-07-28T01:01:57.068Z,397
2022-07-28T01:02:07.125Z,398
2022-07-28T01:02:17.147Z,398
2022-07-28T01:02:27.120Z,398
2022-07-28T01:02:37.176Z,398
2022-07-28T01:02:47.211Z,397
2022-07-28T01:02:57.212Z,398
2022-07-28T01:03:07.058Z,397
2022-07-28T01:03:17.180Z,398
2022-07-28T01:03:27.065Z,396
2022-07-28T01:03:37.111Z,398
2022-07-28T01:03:47.156Z,399
2022-07-28T01:03:57.161Z,399
2022-07-28T01:04:07.128Z,399
2022-07-28T01:04:17.711Z,399
2022-07-28T01:04:27.136Z,399
2022-07-28T01:04:37.149Z,400
2022-07-28T01:04:47.187Z,401
2022-07-28T01:04:57.176Z,400
2022-07-28T01:05:07.200Z,401
2022-07-28T01:05:17.201Z,400
2022-07-28T01:05:43.629Z,403
2022-07-28T01:05:43.804Z,401
2022-07-28T01:05:47.225Z,403
2022-07-28T01:05:57.257Z,403
2022-07-28T01:06:07.257Z,403
2022-07-28T01:06:17.337Z,403
2022-07-28T01:06:27.273Z,402
2022-07-28T01:06:37.296Z,402
2022-07-28T01:06:47.301Z,400
2022-07-28T01:06:57.318Z,401
2022-07-28T01:07:07.330Z,400
2022-07-28T01:07:17.344Z,401
2022-07-28T01:07:27.355Z,401
2022-07-28T01:07:37.376Z,401
2022-07-28T01:07:47.380Z,400
2022-07-28T01:07:57.388Z,400
2022-07-28T01:08:07.411Z,398
2022-07-28T01:08:17.423Z,398
2022-07-28T01:08:27.431Z,397
2022-07-28T01:08:37.543Z,397
2022-07-28T01:08:47.467Z,397
2022-07-28T01:08:57.469Z,397
2022-07-28T01:09:07.500Z,399
2022-07-28T01:09:17.501Z,400
2022-07-28T01:09:27.515Z,400
2022-07-28T01:09:37.521Z,399
2022-07-28T01:09:47.521Z,400
2022-07-28T01:09:57.592Z,398
2022-07-28T01:10:07.555Z,399
2022-07-28T01:10:17.567Z,400
2022-07-28T01:10:27.585Z,400
2022-07-28T01:10:47.611Z,398
2022-07-28T01:10:57.658Z,398
2022-07-28T01:11:07.638Z,399
2022-07-28T01:11:17.645Z,399
2022-07-28T01:11:27.702Z,398
2022-07-28T01:11:42.847Z,399
2022-07-28T01:11:47.675Z,398
2022-07-28T01:11:57.701Z,397
2022-07-28T01:12:07.698Z,398
2022-07-28T01:12:17.715Z,396
2022-07-28T01:12:27.729Z,394
2022-07-28T01:12:37.750Z,394
2022-07-28T01:12:47.754Z,396
2022-07-28T01:12:57.821Z,395
2022-07-28T01:13:07.817Z,395
2022-07-28T01:13:17.853Z,395
2022-07-28T01:13:30.077Z,395
2022-07-28T01:13:37.829Z,396
2022-07-28T01:13:47.820Z,395
2022-07-28T01:13:57.835Z,395
2022-07-28T01:14:07.845Z,397
2022-07-28T01:14:18.377Z,398
2022-07-28T01:14:27.867Z,396
2022-07-28T01:14:37.885Z,395
2022-07-28T01:14:47.901Z,397
2022-07-28T01:14:57.909Z,398
2022-07-28T01:15:07.917Z,398
2022-07-28T01:15:18.006Z,398
2022-07-28T01:15:27.944Z,398
2022-07-28T01:15:38.032Z,397
2022-07-28T01:15:48.024Z,399
2022-07-28T01:15:58.016Z,399
2022-07-28T01:16:08.052Z,400
2022-07-28T01:16:18.313Z,401
2022-07-28T01:16:28.092Z,401
2022-07-28T01:16:38.131Z,402
2022-07-28T01:16:48.030Z,402
2022-07-28T01:16:58.149Z,403
2022-07-28T01:17:08.091Z,403
2022-07-28T01:17:18.081Z,402
2022-07-28T01:17:28.091Z,402
2022-07-28T01:17:38.099Z,404
2022-07-28T01:17:48.119Z,403
2022-07-28T01:17:58.127Z,404
2022-07-28T01:18:08.142Z,403
2022-07-28T01:18:18.156Z,402
2022-07-28T01:18:28.221Z,402
2022-07-28T01:18:38.190Z,400
2022-07-28T01:18:48.189Z,401
2022-07-28T01:18:58.207Z,401
2022-07-28T01:19:08.304Z,401
2022-07-28T01:19:18.229Z,400
2022-07-28T01:19:28.237Z,401
2022-07-28T01:19:38.263Z,404
2022-07-28T01:19:48.257Z,404
2022-07-28T01:19:58.278Z,404
2022-07-28T01:20:08.282Z,405
2022-07-28T01:20:18.306Z,404
2022-07-28T01:20:28.315Z,402
2022-07-28T01:20:38.327Z,401
2022-07-28T01:20:48.336Z,403
2022-07-28T01:20:58.385Z,402
2022-07-28T01:21:08.358Z,403
2022-07-28T01:21:18.361Z,404
2022-07-28T01:21:28.455Z,404
2022-07-28T01:21:38.387Z,404
2022-07-28T01:21:48.396Z,406
2022-07-28T01:21:58.432Z,404
2022-07-28T01:22:08.419Z,406
2022-07-28T01:22:18.433Z,405
2022-07-28T01:22:28.454Z,407
2022-07-28T01:22:38.470Z,407
2022-07-28T01:22:48.484Z,408
2022-07-28T01:22:58.510Z,408
2022-07-28T01:23:08.499Z,408
2022-07-28T01:23:18.510Z,409
2022-07-28T01:23:28.517Z,411
2022-07-28T01:23:38.550Z,411
2022-07-28T01:23:48.542Z,410
2022-07-28T01:23:58.588Z,409
2022-07-28T01:24:08.577Z,411
2022-07-28T01:24:18.594Z,412
2022-07-28T01:24:28.597Z,411
2022-07-28T01:24:38.608Z,412
2022-07-28T01:24:48.624Z,412
2022-07-28T01:24:58.716Z,412
2022-07-28T01:25:08.642Z,411
2022-07-28T01:25:18.687Z,411
2022-07-28T01:25:28.668Z,412
2022-07-28T01:25:38.687Z,413
2022-07-28T01:25:48.788Z,415
2022-07-28T01:25:58.704Z,415
2022-07-28T01:26:08.715Z,415
2022-07-28T01:26:18.732Z,412
2022-07-28T01:26:28.738Z,412
2022-07-28T01:26:38.755Z,410
2022-07-28T01:26:48.781Z,411
2022-07-28T01:26:58.776Z,409
2022-07-28T01:27:08.795Z,409
2022-07-28T01:27:18.818Z,410
2022-07-28T01:27:28.816Z,412
2022-07-28T01:27:38.826Z,413
2022-07-28T01:27:48.834Z,414
2022-07-28T01:27:58.883Z,412
2022-07-28T01:28:08.865Z,413
2022-07-28T01:28:18.897Z,412
2022-07-28T01:28:28.906Z,411
2022-07-28T01:28:38.925Z,410
2022-07-28T01:28:48.910Z,413
2022-07-28T01:28:58.928Z,412
2022-07-28T01:29:08.965Z,415
2022-07-28T01:29:18.964Z,413
2022-07-28T01:29:28.970Z,413
2022-07-28T01:29:38.987Z,413
2022-07-28T01:29:48.989Z,413
2022-07-28T01:29:58.997Z,413
2022-07-28T01:30:09.010Z,414
2022-07-28T01:30:19.033Z,413
2022-07-28T01:30:29.041Z,415
2022-07-28T01:30:39.049Z,415
2022-07-28T01:30:49.097Z,416
2022-07-28T01:30:59.119Z,415
2022-07-28T01:31:09.156Z,417
2022-07-28T01:31:19.220Z,418
2022-07-28T01:31:29.200Z,419
2022-07-28T01:31:39.189Z,417
2022-07-28T01:31:49.129Z,419
2022-07-28T01:31:59.153Z,418
2022-07-28T01:32:09.158Z,418
2022-07-28T01:32:19.180Z,420
2022-07-28T01:32:29.184Z,419
2022-07-28T01:32:39.219Z,417
2022-07-28T01:32:49.206Z,416
2022-07-28T01:32:59.284Z,414
2022-07-28T01:33:09.231Z,416
2022-07-28T01:33:19.253Z,416
2022-07-28T01:33:29.255Z,414
2022-07-28T01:33:39.291Z,414
2022-07-28T01:33:49.300Z,414
2022-07-28T01:33:59.297Z,416
2022-07-28T01:34:09.308Z,417
2022-07-28T01:34:19.362Z,418
2022-07-28T01:34:29.341Z,418
2022-07-28T01:34:39.345Z,417
2022-07-28T01:34:49.362Z,415
2022-07-28T01:34:59.369Z,414
2022-07-28T01:35:09.402Z,414
2022-07-28T01:35:19.410Z,413
2022-07-28T01:35:29.511Z,413
2022-07-28T01:35:39.417Z,412
2022-07-28T01:35:49.427Z,413
2022-07-28T01:35:59.447Z,414
2022-07-28T01:36:09.467Z,411
2022-07-28T01:36:19.474Z,410
2022-07-28T01:36:29.480Z,407
2022-07-28T01:36:39.492Z,406
2022-07-28T01:36:49.502Z,408
2022-07-28T01:36:59.522Z,410
2022-07-28T01:37:09.535Z,411
2022-07-28T01:37:19.541Z,410
2022-07-28T01:37:29.557Z,408
2022-07-28T01:37:39.573Z,407
2022-07-28T01:37:49.585Z,408
2022-07-28T01:37:59.632Z,407
2022-07-28T01:38:09.604Z,406
2022-07-28T01:38:19.625Z,405
2022-07-28T01:38:29.637Z,405
2022-07-28T01:38:39.648Z,405
2022-07-28T01:38:49.658Z,404
2022-07-28T01:38:59.675Z,405
2022-07-28T01:39:09.683Z,406
2022-07-28T01:39:19.696Z,406
2022-07-28T01:39:29.709Z,407
2022-07-28T01:39:39.753Z,408
2022-07-28T01:39:49.804Z,410
2022-07-28T01:39:59.752Z,411
2022-07-28T01:40:09.789Z,410
2022-07-28T01:40:19.769Z,410
2022-07-28T01:40:29.784Z,410
2022-07-28T01:40:39.795Z,411
2022-07-28T01:40:50.325Z,411
2022-07-28T01:40:59.816Z,413
2022-07-28T01:41:09.839Z,412
2022-07-28T01:41:19.841Z,410
2022-07-28T01:41:29.848Z,408
2022-07-28T01:41:39.870Z,407
2022-07-28T01:41:49.890Z,408
2022-07-28T01:41:59.894Z,409
2022-07-28T01:42:09.913Z,409
2022-07-28T01:42:19.913Z,409
2022-07-28T01:42:29.927Z,411
2022-07-28T01:42:39.939Z,411
2022-07-28T01:42:49.972Z,410
2022-07-28T01:42:59.978Z,410
2022-07-28T01:43:12.472Z,409
2022-07-28T01:43:19.984Z,409
2022-07-28T01:43:30.000Z,409
2022-07-28T01:43:40.025Z,410
2022-07-28T01:43:50.026Z,412
2022-07-28T01:44:00.042Z,414
2022-07-28T01:44:10.203Z,414
2022-07-28T01:44:20.074Z,415
2022-07-28T01:44:30.086Z,415
2022-07-28T01:44:40.082Z,415
2022-07-28T01:44:50.094Z,416
2022-07-28T01:45:00.207Z,417
2022-07-28T01:45:10.118Z,415
2022-07-28T01:45:20.131Z,418
2022-07-28T01:45:30.139Z,417
2022-07-28T01:45:40.158Z,417
2022-07-28T01:45:50.167Z,417
2022-07-28T01:46:00.326Z,417
2022-07-28T01:46:10.420Z,416
2022-07-28T01:46:20.231Z,416
2022-07-28T01:46:30.326Z,417
2022-07-28T01:46:40.379Z,416
2022-07-28T01:46:50.317Z,416
2022-07-28T01:47:00.256Z,416
2022-07-28T01:47:10.282Z,416
2022-07-28T01:47:20.283Z,416
2022-07-28T01:47:30.306Z,416
2022-07-28T01:47:40.307Z,416
2022-07-28T01:47:50.371Z,415
2022-07-28T01:48:00.331Z,414
2022-07-28T01:48:10.339Z,415
2022-07-28T01:48:20.363Z,414
2022-07-28T01:48:30.367Z,415
2022-07-28T01:48:40.440Z,418
2022-07-28T01:48:50.551Z,419
2022-07-28T01:49:00.529Z,420
2022-07-28T01:49:10.487Z,421
2022-07-28T01:49:20.510Z,418
2022-07-28T01:49:30.436Z,419
2022-07-28T01:49:40.448Z,417
2022-07-28T01:49:50.463Z,417
2022-07-28T01:50:00.476Z,417
2022-07-28T01:50:10.497Z,417
2022-07-28T01:50:20.505Z,416
2022-07-28T01:50:30.513Z,417
2022-07-28T01:50:40.525Z,417
2022-07-28T01:50:50.539Z,417
2022-07-28T01:51:00.547Z,416
2022-07-28T01:51:10.563Z,416
2022-07-28T01:51:20.576Z,417
2022-07-28T01:51:30.596Z,417
2022-07-28T01:51:40.613Z,417
2022-07-28T01:51:50.615Z,418
2022-07-28T01:52:00.736Z,419
2022-07-28T01:52:10.641Z,418
2022-07-28T01:52:20.651Z,418
2022-07-28T01:52:30.660Z,419
2022-07-28T01:52:40.688Z,419
2022-07-28T01:52:50.699Z,419
2022-07-28T01:53:00.710Z,421
2022-07-28T01:53:10.777Z,419
2022-07-28T01:53:20.738Z,418
2022-07-28T01:53:30.739Z,418
2022-07-28T01:53:40.756Z,420
2022-07-28T01:53:50.763Z,418
2022-07-28T01:54:00.774Z,417
2022-07-28T01:54:11.061Z,417
2022-07-28T01:54:20.793Z,417
2022-07-28T01:54:30.801Z,417
2022-07-28T01:54:40.812Z,418
2022-07-28T01:54:50.824Z,418
2022-07-28T01:55:00.840Z,419
2022-07-28T01:55:10.855Z,419
2022-07-28T01:55:20.867Z,419
2022-07-28T01:55:30.879Z,419
2022-07-28T01:55:40.893Z,418
2022-07-28T01:55:50.932Z,416
2022-07-28T01:56:00.969Z,415
2022-07-28T01:56:10.934Z,414
2022-07-28T01:56:20.957Z,413
2022-07-28T01:56:30.955Z,412
2022-07-28T01:56:40.966Z,413
2022-07-28T01:56:50.985Z,414
2022-07-28T01:57:00.995Z,415
2022-07-28T01:57:11.027Z,416
2022-07-28T01:57:21.022Z,415
2022-07-28T01:57:31.066Z,415
2022-07-28T01:57:41.040Z,415
2022-07-28T01:57:51.050Z,415
2022-07-28T01:58:01.079Z,414
2022-07-28T01:58:11.082Z,413
2022-07-28T01:58:21.100Z,413
2022-07-28T01:58:31.110Z,411
2022-07-28T01:58:41.221Z,410
2022-07-28T01:58:51.131Z,408
2022-07-28T01:59:01.139Z,409
2022-07-28T01:59:11.150Z,410
2022-07-28T01:59:21.163Z,411
2022-07-28T01:59:31.806Z,411
2022-07-28T01:59:41.192Z,412
2022-07-28T01:59:51.216Z,411
2022-07-28T02:00:01.219Z,411
2022-07-28T02:00:11.243Z,413
2022-07-28T02:00:21.246Z,414
2022-07-28T02:00:31.253Z,414
2022-07-28T02:00:41.265Z,414
2022-07-28T02:00:51.282Z,413
2022-07-28T02:01:01.298Z,414
2022-07-28T02:01:11.361Z,416
2022-07-28T02:01:21.388Z,417
2022-07-28T02:01:31.371Z,418
2022-07-28T02:01:41.462Z,419
2022-07-28T02:01:51.427Z,419
2022-07-28T02:02:01.436Z,419
2022-07-28T02:02:11.379Z,418
2022-07-28T02:02:21.392Z,416
2022-07-28T02:02:31.401Z,416
2022-07-28T02:02:41.412Z,415
2022-07-28T02:02:51.438Z,416
2022-07-28T02:03:01.446Z,417
2022-07-28T02:03:11.456Z,417
2022-07-28T02:03:21.473Z,417
2022-07-28T02:03:31.483Z,417
2022-07-28T02:03:41.537Z,417
2022-07-28T02:03:51.502Z,417
2022-07-28T02:04:01.513Z,417
2022-07-28T02:04:11.875Z,415
2022-07-28T02:04:21.602Z,414
2022-07-28T02:04:31.629Z,412
2022-07-28T02:04:41.663Z,412
2022-07-28T02:04:51.658Z,414
2022-07-28T02:05:01.683Z,413
2022-07-28T02:05:11.665Z,414
2022-07-28T02:05:21.894Z,414
2022-07-28T02:05:31.702Z,415
2022-07-28T02:05:41.633Z,414
2022-07-28T02:05:51.713Z,413
2022-07-28T02:06:01.665Z,414
2022-07-28T02:06:11.683Z,411
2022-07-28T02:06:21.693Z,410
2022-07-28T02:06:31.729Z,411
2022-07-28T02:06:41.791Z,411
2022-07-28T02:06:51.736Z,412
2022-07-28T02:07:01.756Z,412
2022-07-28T02:07:11.796Z,412
2022-07-28T02:07:21.766Z,411
2022-07-28T02:07:31.773Z,411
2022-07-28T02:07:41.789Z,411
2022-07-28T02:07:51.796Z,406
2022-07-28T02:08:01.813Z,403
2022-07-28T02:08:11.823Z,406
2022-07-28T02:08:21.841Z,404
2022-07-28T02:08:31.850Z,406
2022-07-28T02:08:41.881Z,409
2022-07-28T02:08:51.937Z,411
2022-07-28T02:09:01.887Z,414
2022-07-28T02:09:11.916Z,414
2022-07-28T02:09:21.918Z,416
2022-07-28T02:09:31.930Z,415
2022-07-28T02:09:41.939Z,415
2022-07-28T02:09:51.951Z,416
2022-07-28T02:10:01.977Z,413
2022-07-28T02:10:11.990Z,416
2022-07-28T02:10:21.992Z,417
2022-07-28T02:10:32.006Z,417
2022-07-28T02:10:42.024Z,416
2022-07-28T02:10:52.029Z,416
2022-07-28T02:11:02.043Z,416
2022-07-28T02:11:12.056Z,417
2022-07-28T02:11:22.067Z,415
2022-07-28T02:11:32.075Z,415
2022-07-28T02:11:42.103Z,417
2022-07-28T02:11:52.097Z,422
2022-07-28T02:12:02.112Z,421
2022-07-28T02:12:12.125Z,418
2022-07-28T02:12:22.150Z,418
2022-07-28T02:12:32.151Z,417
2022-07-28T02:12:42.161Z,417
2022-07-28T02:12:52.176Z,419
2022-07-28T02:13:02.184Z,418
2022-07-28T02:13:12.214Z,417
2022-07-28T02:13:22.223Z,416
2022-07-28T02:13:32.223Z,416
2022-07-28T02:13:42.260Z,416
2022-07-28T02:13:52.252Z,415
2022-07-28T02:14:02.419Z,417
2022-07-28T02:14:12.494Z,417
2022-07-28T02:14:22.288Z,417
2022-07-28T02:14:32.296Z,417
2022-07-28T02:14:42.315Z,418
2022-07-28T02:14:52.320Z,418
2022-07-28T02:15:02.358Z,418
2022-07-28T02:15:12.354Z,418
2022-07-28T02:15:22.392Z,418
2022-07-28T02:15:32.422Z,418
2022-07-28T02:15:42.459Z,417
2022-07-28T02:15:52.463Z,418
2022-07-28T02:16:02.470Z,419
2022-07-28T02:16:12.511Z,418
2022-07-28T02:16:22.524Z,419
2022-07-28T02:16:32.450Z,419
2022-07-28T02:16:42.509Z,419
2022-07-28T02:16:52.471Z,420
2022-07-28T02:17:02.490Z,418
2022-07-28T02:17:12.577Z,419
2022-07-28T02:17:22.609Z,419
2022-07-28T02:17:32.518Z,419
2022-07-28T02:17:42.533Z,419
2022-07-28T02:17:52.549Z,419
2022-07-28T02:18:02.658Z,417
2022-07-28T02:18:12.557Z,416
2022-07-28T02:18:22.573Z,417
2022-07-28T02:18:32.581Z,418
2022-07-28T02:18:42.645Z,417
2022-07-28T02:18:52.634Z,419
2022-07-28T02:19:02.660Z,420